This is the latest recevied weather packets stored in our database for station/object IU1OLT-7. If no packets are shown the sender has not sent any weather packets the latest 10 day(s).
| Time | Temp. | Humidity | Pressure | Rain* | Wind** | Luminosity | Snow |
|---|---|---|---|---|---|---|---|
| 1787746136 | 30.56° C | 40% | 1023.8 hPa | - | - | - | - |
| 1787745236 | 31.67° C | 38% | 1023.9 hPa | - | - | - | - |
| 1787744336 | 33.89° C | 33% | 1023.9 hPa | - | - | - | - |
| 1787743431 | 34.44° C | 32% | 1023.7 hPa | - | - | - | - |
| 1787742531 | 34.44° C | 31% | 1023.6 hPa | - | - | - | - |
| 1787741631 | 33.89° C | 31% | 1023.8 hPa | - | - | - | - |
| 1787740731 | 33.89° C | 32% | 1023.6 hPa | - | - | - | - |
| 1787739831 | 33.89° C | 28% | 1024 hPa | - | - | - | - |
| 1787738931 | 31.11° C | 34% | 1024.1 hPa | - | - | - | - |
| 1787738031 | 32.22° C | 36% | 1024.1 hPa | - | - | - | - |
| 1787737131 | 25.56° C | 51% | 1024.5 hPa | - | - | - | - |
| 1787736231 | 28.33° C | 43% | 1024.2 hPa | - | - | - | - |
| 1787735331 | 32.78° C | 35% | 1024.1 hPa | - | - | - | - |
| 1787734431 | 27.78° C | 43% | 1023.8 hPa | - | - | - | - |
| 1787733530 | 32.22° C | 35% | 1023.6 hPa | - | - | - | - |
| 1787732630 | 30.56° C | 38% | 1023.4 hPa | - | - | - | - |
| 1787731728 | 30° C | 39% | 1023.3 hPa | - | - | - | - |
| 1787730828 | 30° C | 38% | 1023.3 hPa | - | - | - | - |
| 1787729928 | 27.78° C | 45% | 1023.3 hPa | - | - | - | - |
| 1787729028 | 26.67° C | 50% | 1023.1 hPa | - | - | - | - |
| 1787728128 | 27.22° C | 50% | 1023.1 hPa | - | - | - | - |
| 1787727228 | 26.67° C | 52% | 1023 hPa | - | - | - | - |
| 1787726328 | 26.11° C | 53% | 1023 hPa | - | - | - | - |
| 1787725435 | 25° C | 57% | 1022.9 hPa | - | - | - | - |
| 1787722734 | 21.11° C | 70% | 1022.6 hPa | - | - | - | - |
* Rain since midnight (hover to see other rain measurements)
** Current wind speed in m/s (hover to see current wind gust speed)